sensor_id;sensor_type;location;lat;lon;timestamp;P1;durP1;ratioP1;P2;durP2;ratioP2
33987;SDS011;37428;53.580;-1.666;2024-02-26T00:02:15;8.88;;;6.32;;
33987;SDS011;37428;53.580;-1.666;2024-02-26T00:05:19;8.77;;;6.88;;
33987;SDS011;37428;53.580;-1.666;2024-02-26T00:08:23;12.02;;;6.70;;
33987;SDS011;37428;53.580;-1.666;2024-02-26T00:11:25;13.15;;;7.30;;
33987;SDS011;37428;53.580;-1.666;2024-02-26T00:14:41;14.73;;;7.00;;
33987;SDS011;37428;53.580;-1.666;2024-02-26T00:18:01;10.40;;;7.40;;
33987;SDS011;37428;53.580;-1.666;2024-02-26T00:21:08;12.48;;;6.70;;
33987;SDS011;37428;53.580;-1.666;2024-02-26T00:24:12;12.00;;;7.30;;
33987;SDS011;37428;53.580;-1.666;2024-02-26T00:27:29;14.38;;;7.75;;
33987;SDS011;37428;53.580;-1.666;2024-02-26T00:30:31;11.35;;;6.15;;
33987;SDS011;37428;53.580;-1.666;2024-02-26T00:33:35;10.43;;;6.05;;
33987;SDS011;37428;53.580;-1.666;2024-02-26T00:36:44;10.98;;;6.15;;
33987;SDS011;37428;53.580;-1.666;2024-02-26T00:39:52;10.82;;;6.80;;
33987;SDS011;37428;53.580;-1.666;2024-02-26T00:42:54;8.25;;;5.95;;
33987;SDS011;37428;53.580;-1.666;2024-02-26T00:45:58;9.00;;;5.63;;
33987;SDS011;37428;53.580;-1.666;2024-02-26T00:49:01;11.80;;;6.20;;
33987;SDS011;37428;53.580;-1.666;2024-02-26T00:52:06;11.65;;;5.70;;
33987;SDS011;37428;53.580;-1.666;2024-02-26T00:55:08;13.85;;;6.30;;
33987;SDS011;37428;53.580;-1.666;2024-02-26T00:58:16;14.43;;;5.97;;
33987;SDS011;37428;53.580;-1.666;2024-02-26T01:01:19;9.70;;;5.90;;
33987;SDS011;37428;53.580;-1.666;2024-02-26T01:04:21;14.70;;;5.95;;
33987;SDS011;37428;53.580;-1.666;2024-02-26T01:07:27;9.40;;;5.60;;
33987;SDS011;37428;53.580;-1.666;2024-02-26T01:10:33;13.75;;;4.93;;
33987;SDS011;37428;53.580;-1.666;2024-02-26T01:13:35;13.77;;;5.45;;
33987;SDS011;37428;53.580;-1.666;2024-02-26T01:16:37;7.53;;;5.25;;
33987;SDS011;37428;53.580;-1.666;2024-02-26T01:19:40;12.57;;;5.95;;
33987;SDS011;37428;53.580;-1.666;2024-02-26T01:22:43;8.63;;;4.43;;
33987;SDS011;37428;53.580;-1.666;2024-02-26T01:25:46;11.55;;;4.93;;
33987;SDS011;37428;53.580;-1.666;2024-02-26T01:28:48;8.35;;;4.63;;
33987;SDS011;37428;53.580;-1.666;2024-02-26T01:31:50;7.55;;;5.07;;
33987;SDS011;37428;53.580;-1.666;2024-02-26T01:34:52;9.77;;;5.20;;
33987;SDS011;37428;53.580;-1.666;2024-02-26T01:37:56;10.77;;;4.38;;
33987;SDS011;37428;53.580;-1.666;2024-02-26T01:40:58;8.43;;;4.80;;
33987;SDS011;37428;53.580;-1.666;2024-02-26T01:44:01;7.45;;;4.75;;
33987;SDS011;37428;53.580;-1.666;2024-02-26T01:47:05;11.38;;;3.85;;
33987;SDS011;37428;53.580;-1.666;2024-02-26T01:50:09;8.07;;;3.55;;
33987;SDS011;37428;53.580;-1.666;2024-02-26T01:56:16;11.90;;;4.20;;
33987;SDS011;37428;53.580;-1.666;2024-02-26T01:59:23;5.45;;;4.18;;
33987;SDS011;37428;53.580;-1.666;2024-02-26T02:02:26;9.43;;;4.95;;
33987;SDS011;37428;53.580;-1.666;2024-02-26T02:05:28;8.25;;;4.63;;
33987;SDS011;37428;53.580;-1.666;2024-02-26T02:08:33;7.45;;;3.97;;
33987;SDS011;37428;53.580;-1.666;2024-02-26T02:11:40;11.55;;;4.93;;
33987;SDS011;37428;53.580;-1.666;2024-02-26T02:14:44;5.30;;;3.65;;
33987;SDS011;37428;53.580;-1.666;2024-02-26T02:17:48;11.43;;;4.03;;
33987;SDS011;37428;53.580;-1.666;2024-02-26T02:20:57;7.35;;;4.13;;
33987;SDS011;37428;53.580;-1.666;2024-02-26T02:24:02;6.70;;;4.20;;
33987;SDS011;37428;53.580;-1.666;2024-02-26T02:27:04;7.35;;;4.00;;
33987;SDS011;37428;53.580;-1.666;2024-02-26T02:33:11;10.15;;;4.15;;
33987;SDS011;37428;53.580;-1.666;2024-02-26T02:36:30;9.88;;;4.60;;
33987;SDS011;37428;53.580;-1.666;2024-02-26T02:39:32;8.40;;;4.40;;
33987;SDS011;37428;53.580;-1.666;2024-02-26T02:42:34;8.68;;;5.03;;
33987;SDS011;37428;53.580;-1.666;2024-02-26T02:45:38;15.25;;;5.07;;
33987;SDS011;37428;53.580;-1.666;2024-02-26T02:49:07;7.70;;;4.75;;
33987;SDS011;37428;53.580;-1.666;2024-02-26T02:52:19;8.40;;;4.55;;
33987;SDS011;37428;53.580;-1.666;2024-02-26T02:55:25;6.05;;;3.90;;
33987;SDS011;37428;53.580;-1.666;2024-02-26T02:58:29;8.00;;;4.53;;
33987;SDS011;37428;53.580;-1.666;2024-02-26T03:01:38;5.28;;;3.85;;
33987;SDS011;37428;53.580;-1.666;2024-02-26T03:04:40;6.40;;;3.90;;
33987;SDS011;37428;53.580;-1.666;2024-02-26T03:07:44;10.00;;;3.75;;
33987;SDS011;37428;53.580;-1.666;2024-02-26T03:10:48;14.18;;;4.82;;
33987;SDS011;37428;53.580;-1.666;2024-02-26T03:13:53;11.93;;;4.55;;
33987;SDS011;37428;53.580;-1.666;2024-02-26T03:16:55;11.88;;;4.22;;
33987;SDS011;37428;53.580;-1.666;2024-02-26T03:19:59;7.57;;;4.20;;
33987;SDS011;37428;53.580;-1.666;2024-02-26T03:23:05;8.88;;;4.25;;
33987;SDS011;37428;53.580;-1.666;2024-02-26T03:26:10;8.23;;;3.85;;
33987;SDS011;37428;53.580;-1.666;2024-02-26T03:29:14;9.48;;;3.63;;
33987;SDS011;37428;53.580;-1.666;2024-02-26T03:32:17;10.05;;;5.13;;
33987;SDS011;37428;53.580;-1.666;2024-02-26T03:35:19;18.20;;;5.32;;
33987;SDS011;37428;53.580;-1.666;2024-02-26T03:38:29;10.45;;;4.43;;
33987;SDS011;37428;53.580;-1.666;2024-02-26T03:41:32;8.50;;;4.50;;
33987;SDS011;37428;53.580;-1.666;2024-02-26T03:44:48;10.98;;;3.88;;
33987;SDS011;37428;53.580;-1.666;2024-02-26T03:47:56;11.23;;;3.70;;
33987;SDS011;37428;53.580;-1.666;2024-02-26T03:51:00;11.73;;;3.65;;
33987;SDS011;37428;53.580;-1.666;2024-02-26T03:54:08;9.77;;;4.28;;
33987;SDS011;37428;53.580;-1.666;2024-02-26T03:57:11;6.55;;;4.20;;
33987;SDS011;37428;53.580;-1.666;2024-02-26T04:00:13;13.98;;;4.22;;
33987;SDS011;37428;53.580;-1.666;2024-02-26T04:03:23;8.63;;;5.00;;
33987;SDS011;37428;53.580;-1.666;2024-02-26T04:06:26;7.97;;;4.93;;
33987;SDS011;37428;53.580;-1.666;2024-02-26T04:09:32;11.20;;;4.90;;
33987;SDS011;37428;53.580;-1.666;2024-02-26T04:12:38;12.00;;;6.07;;
33987;SDS011;37428;53.580;-1.666;2024-02-26T04:15:41;14.13;;;7.70;;
33987;SDS011;37428;53.580;-1.666;2024-02-26T04:18:43;10.75;;;6.30;;
33987;SDS011;37428;53.580;-1.666;2024-02-26T04:21:47;10.40;;;6.30;;
33987;SDS011;37428;53.580;-1.666;2024-02-26T04:24:51;13.00;;;6.15;;
33987;SDS011;37428;53.580;-1.666;2024-02-26T04:28:07;14.60;;;6.28;;
33987;SDS011;37428;53.580;-1.666;2024-02-26T04:31:25;15.33;;;7.00;;
33987;SDS011;37428;53.580;-1.666;2024-02-26T04:34:39;7.72;;;5.20;;
33987;SDS011;37428;53.580;-1.666;2024-02-26T04:37:43;10.80;;;5.82;;
33987;SDS011;37428;53.580;-1.666;2024-02-26T04:41:00;8.15;;;5.78;;
33987;SDS011;37428;53.580;-1.666;2024-02-26T04:44:02;11.48;;;5.85;;
33987;SDS011;37428;53.580;-1.666;2024-02-26T04:47:06;8.60;;;4.80;;
33987;SDS011;37428;53.580;-1.666;2024-02-26T04:50:09;10.13;;;4.43;;
33987;SDS011;37428;53.580;-1.666;2024-02-26T04:53:11;8.65;;;4.63;;
33987;SDS011;37428;53.580;-1.666;2024-02-26T04:56:19;13.10;;;5.32;;
33987;SDS011;37428;53.580;-1.666;2024-02-26T04:59:23;7.97;;;5.22;;
33987;SDS011;37428;53.580;-1.666;2024-02-26T05:02:25;10.07;;;5.15;;
33987;SDS011;37428;53.580;-1.666;2024-02-26T05:05:35;9.02;;;5.18;;
33987;SDS011;37428;53.580;-1.666;2024-02-26T05:08:43;14.52;;;5.82;;
33987;SDS011;37428;53.580;-1.666;2024-02-26T05:15:06;12.00;;;7.47;;
33987;SDS011;37428;53.580;-1.666;2024-02-26T05:18:09;12.07;;;7.18;;
33987;SDS011;37428;53.580;-1.666;2024-02-26T05:21:11;9.57;;;7.10;;
33987;SDS011;37428;53.580;-1.666;2024-02-26T05:24:13;9.73;;;7.55;;
33987;SDS011;37428;53.580;-1.666;2024-02-26T05:27:18;11.30;;;6.88;;
33987;SDS011;37428;53.580;-1.666;2024-02-26T05:30:29;11.90;;;6.68;;
33987;SDS011;37428;53.580;-1.666;2024-02-26T05:33:33;12.70;;;6.65;;
33987;SDS011;37428;53.580;-1.666;2024-02-26T05:36:36;13.82;;;6.53;;
33987;SDS011;37428;53.580;-1.666;2024-02-26T05:39:40;12.30;;;4.60;;
33987;SDS011;37428;53.580;-1.666;2024-02-26T05:42:46;10.32;;;5.32;;
33987;SDS011;37428;53.580;-1.666;2024-02-26T05:45:50;8.63;;;4.20;;
33987;SDS011;37428;53.580;-1.666;2024-02-26T05:48:52;13.73;;;4.05;;
33987;SDS011;37428;53.580;-1.666;2024-02-26T05:51:55;8.60;;;3.80;;
33987;SDS011;37428;53.580;-1.666;2024-02-26T05:54:57;9.10;;;4.25;;
33987;SDS011;37428;53.580;-1.666;2024-02-26T05:58:04;9.80;;;3.85;;
33987;SDS011;37428;53.580;-1.666;2024-02-26T06:01:12;9.27;;;5.82;;
33987;SDS011;37428;53.580;-1.666;2024-02-26T06:04:19;10.13;;;6.20;;
33987;SDS011;37428;53.580;-1.666;2024-02-26T06:07:25;10.95;;;6.00;;
33987;SDS011;37428;53.580;-1.666;2024-02-26T06:10:29;11.85;;;6.30;;
33987;SDS011;37428;53.580;-1.666;2024-02-26T06:13:44;11.73;;;5.88;;
33987;SDS011;37428;53.580;-1.666;2024-02-26T06:16:47;11.35;;;5.72;;
33987;SDS011;37428;53.580;-1.666;2024-02-26T06:20:17;10.95;;;7.00;;
33987;SDS011;37428;53.580;-1.666;2024-02-26T06:23:19;11.90;;;5.97;;
33987;SDS011;37428;53.580;-1.666;2024-02-26T06:26:21;14.27;;;6.15;;
33987;SDS011;37428;53.580;-1.666;2024-02-26T06:29:28;9.57;;;6.47;;
33987;SDS011;37428;53.580;-1.666;2024-02-26T06:32:32;21.95;;;7.32;;
33987;SDS011;37428;53.580;-1.666;2024-02-26T06:35:34;9.85;;;6.53;;
33987;SDS011;37428;53.580;-1.666;2024-02-26T06:38:36;10.98;;;6.93;;
33987;SDS011;37428;53.580;-1.666;2024-02-26T06:41:38;7.43;;;5.45;;
33987;SDS011;37428;53.580;-1.666;2024-02-26T06:44:43;9.80;;;5.80;;
33987;SDS011;37428;53.580;-1.666;2024-02-26T06:47:47;9.80;;;5.05;;
33987;SDS011;37428;53.580;-1.666;2024-02-26T06:50:51;12.52;;;4.50;;
33987;SDS011;37428;53.580;-1.666;2024-02-26T06:53:54;9.35;;;4.93;;
33987;SDS011;37428;53.580;-1.666;2024-02-26T06:56:57;8.25;;;3.47;;
33987;SDS011;37428;53.580;-1.666;2024-02-26T07:00:02;4.80;;;3.30;;
33987;SDS011;37428;53.580;-1.666;2024-02-26T07:03:05;7.32;;;3.65;;
33987;SDS011;37428;53.580;-1.666;2024-02-26T07:06:10;9.13;;;3.83;;
33987;SDS011;37428;53.580;-1.666;2024-02-26T07:09:13;7.32;;;2.67;;
33987;SDS011;37428;53.580;-1.666;2024-02-26T07:12:18;7.13;;;3.53;;
33987;SDS011;37428;53.580;-1.666;2024-02-26T07:15:23;10.90;;;3.45;;
33987;SDS011;37428;53.580;-1.666;2024-02-26T07:18:27;9.40;;;3.45;;
33987;SDS011;37428;53.580;-1.666;2024-02-26T07:21:29;13.30;;;3.03;;
33987;SDS011;37428;53.580;-1.666;2024-02-26T07:27:33;7.90;;;2.77;;
33987;SDS011;37428;53.580;-1.666;2024-02-26T07:30:38;10.05;;;4.00;;
33987;SDS011;37428;53.580;-1.666;2024-02-26T07:33:44;13.05;;;3.00;;
33987;SDS011;37428;53.580;-1.666;2024-02-26T07:36:46;6.05;;;2.50;;
33987;SDS011;37428;53.580;-1.666;2024-02-26T07:39:48;7.93;;;3.10;;
33987;SDS011;37428;53.580;-1.666;2024-02-26T07:43:00;6.18;;;2.42;;
33987;SDS011;37428;53.580;-1.666;2024-02-26T07:46:04;5.82;;;3.80;;
33987;SDS011;37428;53.580;-1.666;2024-02-26T07:49:06;6.32;;;2.28;;
33987;SDS011;37428;53.580;-1.666;2024-02-26T07:52:09;7.82;;;2.70;;
33987;SDS011;37428;53.580;-1.666;2024-02-26T07:55:11;5.13;;;2.50;;
33987;SDS011;37428;53.580;-1.666;2024-02-26T07:58:15;5.15;;;2.63;;
33987;SDS011;37428;53.580;-1.666;2024-02-26T08:01:19;9.95;;;3.30;;
33987;SDS011;37428;53.580;-1.666;2024-02-26T08:04:21;8.98;;;2.83;;
33987;SDS011;37428;53.580;-1.666;2024-02-26T08:07:23;6.32;;;2.72;;
33987;SDS011;37428;53.580;-1.666;2024-02-26T08:10:26;4.43;;;2.00;;
33987;SDS011;37428;53.580;-1.666;2024-02-26T08:13:28;12.80;;;2.40;;
33987;SDS011;37428;53.580;-1.666;2024-02-26T08:16:38;5.10;;;2.40;;
33987;SDS011;37428;53.580;-1.666;2024-02-26T08:19:40;14.25;;;2.50;;
33987;SDS011;37428;53.580;-1.666;2024-02-26T08:22:58;6.97;;;2.30;;
33987;SDS011;37428;53.580;-1.666;2024-02-26T08:26:00;8.50;;;2.80;;
33987;SDS011;37428;53.580;-1.666;2024-02-26T08:29:04;9.57;;;2.70;;
33987;SDS011;37428;53.580;-1.666;2024-02-26T08:32:08;7.47;;;2.20;;
33987;SDS011;37428;53.580;-1.666;2024-02-26T08:35:10;7.57;;;2.05;;
33987;SDS011;37428;53.580;-1.666;2024-02-26T08:38:13;6.07;;;2.20;;
33987;SDS011;37428;53.580;-1.666;2024-02-26T08:41:15;12.95;;;2.25;;
33987;SDS011;37428;53.580;-1.666;2024-02-26T08:44:17;6.13;;;2.13;;
33987;SDS011;37428;53.580;-1.666;2024-02-26T08:47:21;9.48;;;2.00;;
33987;SDS011;37428;53.580;-1.666;2024-02-26T08:50:25;5.18;;;1.58;;
33987;SDS011;37428;53.580;-1.666;2024-02-26T08:53:29;9.18;;;3.00;;
33987;SDS011;37428;53.580;-1.666;2024-02-26T08:56:31;6.32;;;2.50;;
33987;SDS011;37428;53.580;-1.666;2024-02-26T08:59:34;7.45;;;1.60;;
33987;SDS011;37428;53.580;-1.666;2024-02-26T09:02:39;4.35;;;0.65;;
33987;SDS011;37428;53.580;-1.666;2024-02-26T09:05:42;2.00;;;0.80;;
33987;SDS011;37428;53.580;-1.666;2024-02-26T09:08:45;2.50;;;0.70;;
33987;SDS011;37428;53.580;-1.666;2024-02-26T09:11:47;3.47;;;1.17;;
33987;SDS011;37428;53.580;-1.666;2024-02-26T09:14:51;3.95;;;1.20;;
33987;SDS011;37428;53.580;-1.666;2024-02-26T09:17:56;8.68;;;3.45;;
33987;SDS011;37428;53.580;-1.666;2024-02-26T09:21:06;7.47;;;2.25;;
33987;SDS011;37428;53.580;-1.666;2024-02-26T09:24:10;8.02;;;1.60;;
33987;SDS011;37428;53.580;-1.666;2024-02-26T09:27:13;8.75;;;4.10;;
33987;SDS011;37428;53.580;-1.666;2024-02-26T09:30:17;6.38;;;2.20;;
33987;SDS011;37428;53.580;-1.666;2024-02-26T09:33:21;10.80;;;3.05;;
33987;SDS011;37428;53.580;-1.666;2024-02-26T09:36:23;8.45;;;2.55;;
33987;SDS011;37428;53.580;-1.666;2024-02-26T09:39:26;7.40;;;2.35;;
33987;SDS011;37428;53.580;-1.666;2024-02-26T09:42:28;6.43;;;2.55;;
33987;SDS011;37428;53.580;-1.666;2024-02-26T09:45:33;7.68;;;3.13;;
33987;SDS011;37428;53.580;-1.666;2024-02-26T09:48:38;7.40;;;2.88;;
33987;SDS011;37428;53.580;-1.666;2024-02-26T09:51:41;5.68;;;3.13;;
33987;SDS011;37428;53.580;-1.666;2024-02-26T09:54:46;9.80;;;2.65;;
33987;SDS011;37428;53.580;-1.666;2024-02-26T09:57:49;7.90;;;2.35;;
33987;SDS011;37428;53.580;-1.666;2024-02-26T10:00:56;6.05;;;3.13;;
33987;SDS011;37428;53.580;-1.666;2024-02-26T10:04:04;6.57;;;3.65;;
33987;SDS011;37428;53.580;-1.666;2024-02-26T10:07:07;12.43;;;2.17;;
33987;SDS011;37428;53.580;-1.666;2024-02-26T10:10:12;9.68;;;2.00;;
33987;SDS011;37428;53.580;-1.666;2024-02-26T10:13:15;4.97;;;1.50;;
33987;SDS011;37428;53.580;-1.666;2024-02-26T10:16:17;7.43;;;1.98;;
33987;SDS011;37428;53.580;-1.666;2024-02-26T10:19:30;5.75;;;2.08;;
33987;SDS011;37428;53.580;-1.666;2024-02-26T10:22:32;8.60;;;2.40;;
33987;SDS011;37428;53.580;-1.666;2024-02-26T10:25:34;6.03;;;2.00;;
33987;SDS011;37428;53.580;-1.666;2024-02-26T10:28:37;6.55;;;1.83;;
33987;SDS011;37428;53.580;-1.666;2024-02-26T10:31:41;3.53;;;1.27;;
33987;SDS011;37428;53.580;-1.666;2024-02-26T10:34:45;5.80;;;1.30;;
33987;SDS011;37428;53.580;-1.666;2024-02-26T10:37:49;8.95;;;2.08;;
33987;SDS011;37428;53.580;-1.666;2024-02-26T10:40:52;4.05;;;1.23;;
33987;SDS011;37428;53.580;-1.666;2024-02-26T10:46:57;6.53;;;1.98;;
33987;SDS011;37428;53.580;-1.666;2024-02-26T10:50:00;2.63;;;1.23;;
33987;SDS011;37428;53.580;-1.666;2024-02-26T10:53:04;7.20;;;0.90;;
33987;SDS011;37428;53.580;-1.666;2024-02-26T10:56:12;8.18;;;1.45;;
33987;SDS011;37428;53.580;-1.666;2024-02-26T10:59:17;7.32;;;0.98;;
33987;SDS011;37428;53.580;-1.666;2024-02-26T11:02:21;2.65;;;1.00;;
33987;SDS011;37428;53.580;-1.666;2024-02-26T11:05:25;3.13;;;1.13;;
33987;SDS011;37428;53.580;-1.666;2024-02-26T11:08:27;5.47;;;1.20;;
33987;SDS011;37428;53.580;-1.666;2024-02-26T11:11:31;6.57;;;1.30;;
33987;SDS011;37428;53.580;-1.666;2024-02-26T11:14:35;5.55;;;1.25;;
33987;SDS011;37428;53.580;-1.666;2024-02-26T11:17:37;4.38;;;0.90;;
33987;SDS011;37428;53.580;-1.666;2024-02-26T11:20:41;4.10;;;1.02;;
33987;SDS011;37428;53.580;-1.666;2024-02-26T11:23:45;3.20;;;1.13;;
33987;SDS011;37428;53.580;-1.666;2024-02-26T11:26:48;5.43;;;1.23;;
33987;SDS011;37428;53.580;-1.666;2024-02-26T11:29:58;1.83;;;1.13;;
33987;SDS011;37428;53.580;-1.666;2024-02-26T11:33:06;4.50;;;1.55;;
33987;SDS011;37428;53.580;-1.666;2024-02-26T11:36:12;5.43;;;1.30;;
33987;SDS011;37428;53.580;-1.666;2024-02-26T11:39:15;3.55;;;1.33;;
33987;SDS011;37428;53.580;-1.666;2024-02-26T11:42:17;1.45;;;1.13;;
33987;SDS011;37428;53.580;-1.666;2024-02-26T11:48:59;1.15;;;0.50;;
33987;SDS011;37428;53.580;-1.666;2024-02-26T11:52:07;1.73;;;0.60;;
33987;SDS011;37428;53.580;-1.666;2024-02-26T11:55:09;3.88;;;0.70;;
33987;SDS011;37428;53.580;-1.666;2024-02-26T11:58:12;1.83;;;0.70;;
33987;SDS011;37428;53.580;-1.666;2024-02-26T12:04:39;3.53;;;1.35;;
33987;SDS011;37428;53.580;-1.666;2024-02-26T12:07:46;3.38;;;0.80;;
33987;SDS011;37428;53.580;-1.666;2024-02-26T12:10:50;3.17;;;0.90;;
33987;SDS011;37428;53.580;-1.666;2024-02-26T12:13:55;5.25;;;0.75;;
33987;SDS011;37428;53.580;-1.666;2024-02-26T12:17:01;4.38;;;1.00;;
33987;SDS011;37428;53.580;-1.666;2024-02-26T12:20:10;1.38;;;0.45;;
33987;SDS011;37428;53.580;-1.666;2024-02-26T12:23:15;1.35;;;0.60;;
33987;SDS011;37428;53.580;-1.666;2024-02-26T12:26:18;1.02;;;0.50;;
33987;SDS011;37428;53.580;-1.666;2024-02-26T12:29:20;0.90;;;0.40;;
33987;SDS011;37428;53.580;-1.666;2024-02-26T12:32:23;3.17;;;0.40;;
33987;SDS011;37428;53.580;-1.666;2024-02-26T12:35:26;2.40;;;1.25;;
33987;SDS011;37428;53.580;-1.666;2024-02-26T12:38:32;3.38;;;1.40;;
33987;SDS011;37428;53.580;-1.666;2024-02-26T12:41:37;5.45;;;2.20;;
33987;SDS011;37428;53.580;-1.666;2024-02-26T12:44:40;9.35;;;5.28;;
33987;SDS011;37428;53.580;-1.666;2024-02-26T12:47:43;6.85;;;1.70;;
33987;SDS011;37428;53.580;-1.666;2024-02-26T12:50:46;1.83;;;0.60;;
33987;SDS011;37428;53.580;-1.666;2024-02-26T12:53:50;2.42;;;0.65;;
33987;SDS011;37428;53.580;-1.666;2024-02-26T12:56:53;2.45;;;0.70;;
33987;SDS011;37428;53.580;-1.666;2024-02-26T12:59:56;0.68;;;0.40;;
33987;SDS011;37428;53.580;-1.666;2024-02-26T13:02:59;2.72;;;0.80;;
33987;SDS011;37428;53.580;-1.666;2024-02-26T13:06:01;3.50;;;0.55;;
33987;SDS011;37428;53.580;-1.666;2024-02-26T13:09:06;3.72;;;0.70;;
33987;SDS011;37428;53.580;-1.666;2024-02-26T13:12:09;3.20;;;0.50;;
33987;SDS011;37428;53.580;-1.666;2024-02-26T13:15:14;6.57;;;0.55;;
33987;SDS011;37428;53.580;-1.666;2024-02-26T13:18:17;1.10;;;0.60;;
33987;SDS011;37428;53.580;-1.666;2024-02-26T13:21:19;2.17;;;0.50;;
33987;SDS011;37428;53.580;-1.666;2024-02-26T13:24:23;3.13;;;0.50;;
33987;SDS011;37428;53.580;-1.666;2024-02-26T13:27:27;4.03;;;0.38;;
33987;SDS011;37428;53.580;-1.666;2024-02-26T13:30:29;3.10;;;0.68;;
33987;SDS011;37428;53.580;-1.666;2024-02-26T13:33:31;2.88;;;1.10;;
33987;SDS011;37428;53.580;-1.666;2024-02-26T13:36:34;9.32;;;1.30;;
33987;SDS011;37428;53.580;-1.666;2024-02-26T13:39:37;7.15;;;1.58;;
33987;SDS011;37428;53.580;-1.666;2024-02-26T13:42:41;3.90;;;0.60;;
33987;SDS011;37428;53.580;-1.666;2024-02-26T13:45:43;1.88;;;0.85;;
33987;SDS011;37428;53.580;-1.666;2024-02-26T13:51:47;2.65;;;0.63;;
33987;SDS011;37428;53.580;-1.666;2024-02-26T13:54:51;3.20;;;0.50;;
33987;SDS011;37428;53.580;-1.666;2024-02-26T13:57:53;6.25;;;0.60;;
33987;SDS011;37428;53.580;-1.666;2024-02-26T14:00:57;6.94;;;1.00;;
33987;SDS011;37428;53.580;-1.666;2024-02-26T14:07:02;3.25;;;2.03;;
33987;SDS011;37428;53.580;-1.666;2024-02-26T14:10:07;3.88;;;1.40;;
33987;SDS011;37428;53.580;-1.666;2024-02-26T14:13:13;9.20;;;1.80;;
33987;SDS011;37428;53.580;-1.666;2024-02-26T14:16:15;4.05;;;0.70;;
33987;SDS011;37428;53.580;-1.666;2024-02-26T14:19:17;6.13;;;1.20;;
33987;SDS011;37428;53.580;-1.666;2024-02-26T14:22:19;6.15;;;1.10;;
33987;SDS011;37428;53.580;-1.666;2024-02-26T14:25:23;3.75;;;0.80;;
33987;SDS011;37428;53.580;-1.666;2024-02-26T14:28:25;2.90;;;0.85;;
33987;SDS011;37428;53.580;-1.666;2024-02-26T14:31:29;3.88;;;0.70;;
33987;SDS011;37428;53.580;-1.666;2024-02-26T14:34:31;3.40;;;0.70;;
33987;SDS011;37428;53.580;-1.666;2024-02-26T14:37:33;3.53;;;0.70;;
33987;SDS011;37428;53.580;-1.666;2024-02-26T14:40:37;3.03;;;0.82;;
33987;SDS011;37428;53.580;-1.666;2024-02-26T14:43:39;1.55;;;0.52;;
33987;SDS011;37428;53.580;-1.666;2024-02-26T14:46:42;7.68;;;0.80;;
33987;SDS011;37428;53.580;-1.666;2024-02-26T14:49:44;3.45;;;0.73;;
33987;SDS011;37428;53.580;-1.666;2024-02-26T14:52:48;3.88;;;0.60;;
33987;SDS011;37428;53.580;-1.666;2024-02-26T14:55:52;2.65;;;0.60;;
33987;SDS011;37428;53.580;-1.666;2024-02-26T14:58:54;3.50;;;0.85;;
33987;SDS011;37428;53.580;-1.666;2024-02-26T15:01:56;4.75;;;0.82;;
33987;SDS011;37428;53.580;-1.666;2024-02-26T15:04:59;4.78;;;2.55;;
33987;SDS011;37428;53.580;-1.666;2024-02-26T15:08:02;3.30;;;0.52;;
33987;SDS011;37428;53.580;-1.666;2024-02-26T15:14:07;2.55;;;0.70;;
33987;SDS011;37428;53.580;-1.666;2024-02-26T15:17:11;4.65;;;0.35;;
33987;SDS011;37428;53.580;-1.666;2024-02-26T15:20:13;0.73;;;0.40;;
33987;SDS011;37428;53.580;-1.666;2024-02-26T15:23:16;1.80;;;0.45;;
33987;SDS011;37428;53.580;-1.666;2024-02-26T15:26:20;1.75;;;0.40;;
33987;SDS011;37428;53.580;-1.666;2024-02-26T15:29:22;1.65;;;0.60;;
33987;SDS011;37428;53.580;-1.666;2024-02-26T15:32:25;2.05;;;0.57;;
33987;SDS011;37428;53.580;-1.666;2024-02-26T15:35:27;3.47;;;0.82;;
33987;SDS011;37428;53.580;-1.666;2024-02-26T15:38:29;2.90;;;0.40;;
33987;SDS011;37428;53.580;-1.666;2024-02-26T15:41:33;0.77;;;0.52;;
33987;SDS011;37428;53.580;-1.666;2024-02-26T15:44:36;5.45;;;0.40;;
33987;SDS011;37428;53.580;-1.666;2024-02-26T15:47:40;2.60;;;0.28;;
33987;SDS011;37428;53.580;-1.666;2024-02-26T15:50:42;0.98;;;0.80;;
33987;SDS011;37428;53.580;-1.666;2024-02-26T15:53:44;2.97;;;0.52;;
33987;SDS011;37428;53.580;-1.666;2024-02-26T15:56:49;1.17;;;0.47;;
33987;SDS011;37428;53.580;-1.666;2024-02-26T15:59:51;1.50;;;0.65;;
33987;SDS011;37428;53.580;-1.666;2024-02-26T16:02:55;1.70;;;0.50;;
33987;SDS011;37428;53.580;-1.666;2024-02-26T16:05:58;2.53;;;0.52;;
33987;SDS011;37428;53.580;-1.666;2024-02-26T16:09:00;3.28;;;0.70;;
33987;SDS011;37428;53.580;-1.666;2024-02-26T16:12:08;5.28;;;0.80;;
33987;SDS011;37428;53.580;-1.666;2024-02-26T16:15:16;3.55;;;0.65;;
33987;SDS011;37428;53.580;-1.666;2024-02-26T16:18:20;3.55;;;0.55;;
33987;SDS011;37428;53.580;-1.666;2024-02-26T16:21:22;3.40;;;0.73;;
33987;SDS011;37428;53.580;-1.666;2024-02-26T16:24:25;5.95;;;0.73;;
33987;SDS011;37428;53.580;-1.666;2024-02-26T16:30:31;3.50;;;0.80;;
33987;SDS011;37428;53.580;-1.666;2024-02-26T16:36:35;1.10;;;0.57;;
33987;SDS011;37428;53.580;-1.666;2024-02-26T16:39:37;2.53;;;0.80;;
33987;SDS011;37428;53.580;-1.666;2024-02-26T16:42:41;3.83;;;0.63;;
33987;SDS011;37428;53.580;-1.666;2024-02-26T16:45:43;3.22;;;0.60;;
33987;SDS011;37428;53.580;-1.666;2024-02-26T16:48:47;2.88;;;0.88;;
33987;SDS011;37428;53.580;-1.666;2024-02-26T16:51:52;3.00;;;0.80;;
33987;SDS011;37428;53.580;-1.666;2024-02-26T16:54:54;4.78;;;0.77;;
33987;SDS011;37428;53.580;-1.666;2024-02-26T16:57:59;3.30;;;1.00;;
33987;SDS011;37428;53.580;-1.666;2024-02-26T17:01:01;3.20;;;0.60;;
33987;SDS011;37428;53.580;-1.666;2024-02-26T17:04:04;3.28;;;1.15;;
33987;SDS011;37428;53.580;-1.666;2024-02-26T17:07:06;5.53;;;1.38;;
33987;SDS011;37428;53.580;-1.666;2024-02-26T17:10:08;3.28;;;1.77;;
33987;SDS011;37428;53.580;-1.666;2024-02-26T17:13:13;6.63;;;1.45;;
33987;SDS011;37428;53.580;-1.666;2024-02-26T17:16:15;6.38;;;1.38;;
33987;SDS011;37428;53.580;-1.666;2024-02-26T17:19:18;3.50;;;0.75;;
33987;SDS011;37428;53.580;-1.666;2024-02-26T17:25:25;7.95;;;1.10;;
33987;SDS011;37428;53.580;-1.666;2024-02-26T17:28:29;12.85;;;2.33;;
33987;SDS011;37428;53.580;-1.666;2024-02-26T17:31:31;5.97;;;1.60;;
33987;SDS011;37428;53.580;-1.666;2024-02-26T17:34:35;5.80;;;0.63;;
33987;SDS011;37428;53.580;-1.666;2024-02-26T17:37:38;8.35;;;1.15;;
33987;SDS011;37428;53.580;-1.666;2024-02-26T17:40:40;4.57;;;1.45;;
33987;SDS011;37428;53.580;-1.666;2024-02-26T17:43:44;10.75;;;2.55;;
33987;SDS011;37428;53.580;-1.666;2024-02-26T17:46:46;9.00;;;2.10;;
33987;SDS011;37428;53.580;-1.666;2024-02-26T17:49:48;7.38;;;1.30;;
33987;SDS011;37428;53.580;-1.666;2024-02-26T17:52:50;4.45;;;1.42;;
33987;SDS011;37428;53.580;-1.666;2024-02-26T17:58:57;6.32;;;1.20;;
33987;SDS011;37428;53.580;-1.666;2024-02-26T18:01:59;6.53;;;0.85;;
33987;SDS011;37428;53.580;-1.666;2024-02-26T18:05:03;6.57;;;1.50;;
33987;SDS011;37428;53.580;-1.666;2024-02-26T18:08:05;5.80;;;1.15;;
33987;SDS011;37428;53.580;-1.666;2024-02-26T18:11:07;13.15;;;2.72;;
33987;SDS011;37428;53.580;-1.666;2024-02-26T18:14:13;5.88;;;1.15;;
33987;SDS011;37428;53.580;-1.666;2024-02-26T18:17:22;8.96;;;1.70;;
33987;SDS011;37428;53.580;-1.666;2024-02-26T18:20:25;11.18;;;1.50;;
33987;SDS011;37428;53.580;-1.666;2024-02-26T18:23:27;4.80;;;1.23;;
33987;SDS011;37428;53.580;-1.666;2024-02-26T18:29:33;8.27;;;1.60;;
33987;SDS011;37428;53.580;-1.666;2024-02-26T18:32:35;4.45;;;1.17;;
33987;SDS011;37428;53.580;-1.666;2024-02-26T18:35:37;4.60;;;1.48;;
33987;SDS011;37428;53.580;-1.666;2024-02-26T18:38:41;9.23;;;2.13;;
33987;SDS011;37428;53.580;-1.666;2024-02-26T18:41:43;10.93;;;2.10;;
33987;SDS011;37428;53.580;-1.666;2024-02-26T18:44:47;7.68;;;3.35;;
33987;SDS011;37428;53.580;-1.666;2024-02-26T18:47:49;11.48;;;2.90;;
33987;SDS011;37428;53.580;-1.666;2024-02-26T18:50:51;10.10;;;3.58;;
33987;SDS011;37428;53.580;-1.666;2024-02-26T18:53:54;6.20;;;3.38;;
33987;SDS011;37428;53.580;-1.666;2024-02-26T18:57:10;11.60;;;4.78;;